Terminal Aerodrome Forecast
Issued by NWS

Home | Current Version | Previous Version | Text Only | Print | Product List | Glossary On
Versions: 1 2 3 4 5 6 7 8 9 10 11 12 13 14 15 16
000
FTUS42 KMLB 280801 AAA
TAFSUA
TAF AMD
KSUA 280801Z 2808/2906 16010KT P6SM VCSH BKN040 BKN080
      TEMPO 2808/2810 4SM SHRA BKN030
     FM281400 17014G22KT P6SM VCSH SCT020 BKN035
     FM281600 18015G23KT P6SM VCTS SCT025CB BKN035 BKN100
      TEMPO 2818/2821 3SM TSRA BKN025CB
     FM290000 18011KT P6SM VCSH SCT030 SCT150 BKN250=

USA.gov is the U.S. government's official web portal to all federal, state and local government web resources and services.